Time;durP1;ratioP1;P1;durP2;ratioP2;P2;SDS_P1;SDS_P2;PMS_P1;PMS_P2;Temp;Humidity;BMP_temperature;BMP_pressure;BME280_temperature;BME280_humidity;BME280_pressure;Samples;Min_cycle;Max_cycle;Signal;HPM_P1;HPM_P2
2023/09/25 00:00:32;;;;;;;3.53;1.17;;;15.70;54.60;;;;;;5021917;28;21517;-55
2023/09/25 00:03:02;;;;;;;2.83;1.23;;;15.60;54.50;;;;;;5021084;28;20080;-54
2023/09/25 00:05:31;;;;;;;3.35;0.93;;;15.60;54.60;;;;;;5022754;28;20057;-57
2023/09/25 00:07:58;;;;;;;2.00;1.20;;;15.60;54.60;;;;;;5021285;28;20064;-52
2023/09/25 00:10:25;;;;;;;1.60;0.95;;;15.60;54.60;;;;;;5023016;28;20049;-55
2023/09/25 00:12:53;;;;;;;1.98;1.00;;;15.60;54.70;;;;;;5022237;28;20053;-55
2023/09/25 00:15:20;;;;;;;2.28;1.02;;;15.60;54.70;;;;;;5021734;28;20115;-56
2023/09/25 00:17:48;;;;;;;1.23;0.90;;;15.60;54.70;;;;;;5021790;28;20512;-53
2023/09/25 00:20:19;;;;;;;3.95;1.25;;;15.50;54.70;;;;;;5019278;28;20417;-55
2023/09/25 00:22:47;;;;;;;3.05;1.27;;;15.60;54.80;;;;;;5021876;28;20089;-53
2023/09/25 00:25:14;;;;;;;2.53;1.17;;;15.50;54.70;;;;;;5022102;28;20056;-55
2023/09/25 00:27:41;;;;;;;2.05;0.80;;;15.50;54.80;;;;;;5021624;28;20061;-54
2023/09/25 00:30:10;;;;;;;1.45;0.90;;;15.50;54.80;;;;;;5020326;28;20076;-51
2023/09/25 00:32:37;;;;;;;1.67;1.05;;;15.50;54.90;;;;;;5022131;28;20053;-55
2023/09/25 00:35:09;;;;;;;3.33;1.10;;;15.50;54.90;;;;;;5021694;28;20053;-52
2023/09/25 00:37:36;;;;;;;2.03;1.00;;;15.50;54.90;;;;;;5020533;28;20060;-53
2023/09/25 00:40:12;;;;;;;2.85;0.85;;;15.50;54.90;;;;;;5022069;28;20057;-54
2023/09/25 00:42:41;;;;;;;1.60;0.70;;;15.50;54.90;;;;;;5020999;28;20060;-55
2023/09/25 00:45:10;;;;;;;2.53;0.88;;;15.60;55.00;;;;;;5021308;28;20061;-56
2023/09/25 00:47:38;;;;;;;4.65;1.13;;;15.50;54.90;;;;;;5022046;28;20080;-55
2023/09/25 00:50:09;;;;;;;1.10;0.70;;;15.50;54.90;;;;;;5021190;28;20076;-54
2023/09/25 00:52:38;;;;;;;1.13;0.77;;;15.50;55.00;;;;;;5021464;28;20539;-55
2023/09/25 00:55:06;;;;;;;1.23;0.70;;;15.50;54.90;;;;;;5021093;28;20061;-53
2023/09/25 00:57:34;;;;;;;1.30;0.80;;;15.50;54.90;;;;;;5021192;28;20060;-55
2023/09/25 01:00:02;;;;;;;1.88;1.00;;;15.50;54.90;;;;;;5021071;28;20061;-56
2023/09/25 01:02:31;;;;;;;1.70;0.80;;;15.50;54.90;;;;;;5021637;28;20046;-54
2023/09/25 01:05:00;;;;;;;1.27;1.15;;;15.50;54.90;;;;;;5020898;28;20489;-52
2023/09/25 01:07:29;;;;;;;1.88;0.80;;;15.50;55.00;;;;;;5021165;28;20061;-54
2023/09/25 01:10:14;;;;;;;2.42;1.15;;;15.50;54.90;;;;;;5021068;28;20049;-55
2023/09/25 01:12:43;;;;;;;1.15;1.00;;;15.50;55.00;;;;;;5020107;28;20189;-55
2023/09/25 01:15:10;;;;;;;5.05;1.20;;;15.50;54.90;;;;;;5020517;28;20060;-57
2023/09/25 01:17:38;;;;;;;1.45;0.93;;;15.50;54.90;;;;;;5021293;28;21429;-55
2023/09/25 01:20:12;;;;;;;2.20;0.85;;;15.50;54.90;;;;;;5020627;28;20049;-56
2023/09/25 01:22:42;;;;;;;4.78;1.30;;;15.40;54.90;;;;;;5020671;28;20057;-55
2023/09/25 01:25:10;;;;;;;2.88;1.35;;;15.40;54.90;;;;;;5020180;28;20044;-53
2023/09/25 01:27:38;;;;;;;3.05;0.80;;;15.40;54.90;;;;;;5019763;28;20053;-55
2023/09/25 01:30:08;;;;;;;1.65;0.93;;;15.40;54.90;;;;;;5019942;28;20405;-56
2023/09/25 01:32:37;;;;;;;0.90;0.80;;;15.40;54.90;;;;;;5021318;28;20053;-55
2023/09/25 01:35:07;;;;;;;1.80;0.82;;;15.40;55.00;;;;;;5020804;28;20049;-52
2023/09/25 01:37:35;;;;;;;1.77;0.90;;;15.40;55.00;;;;;;5021533;28;20437;-56
2023/09/25 01:40:12;;;;;;;1.20;0.80;;;15.30;55.00;;;;;;5020736;28;20060;-55
2023/09/25 01:42:39;;;;;;;1.65;0.80;;;15.30;55.00;;;;;;5020238;28;20069;-56
2023/09/25 01:45:08;;;;;;;0.85;0.70;;;15.30;55.00;;;;;;5019297;28;20417;-55
2023/09/25 01:47:36;;;;;;;1.65;0.98;;;15.30;55.00;;;;;;5018203;28;20048;-54
2023/09/25 01:50:03;;;;;;;2.00;0.98;;;15.30;55.10;;;;;;5019668;28;20049;-56
2023/09/25 01:52:31;;;;;;;2.53;0.98;;;15.30;55.10;;;;;;5021088;28;20053;-55
2023/09/25 01:54:58;;;;;;;2.47;1.00;;;15.30;55.10;;;;;;5021378;28;20049;-55
2023/09/25 01:57:27;;;;;;;1.15;0.75;;;15.30;55.10;;;;;;5021343;28;20512;-56
2023/09/25 01:59:54;;;;;;;2.42;1.05;;;15.30;55.10;;;;;;5020945;28;20057;-55
2023/09/25 02:02:21;;;;;;;2.65;1.23;;;15.20;55.10;;;;;;5019282;28;20053;-54
2023/09/25 02:04:49;;;;;;;4.72;0.95;;;15.20;55.10;;;;;;5020520;28;20072;-56
2023/09/25 02:07:18;;;;;;;2.33;0.80;;;15.20;55.10;;;;;;5020635;28;20049;-53
2023/09/25 02:09:46;;;;;;;1.95;0.77;;;15.20;55.10;;;;;;5020866;28;20493;-53
2023/09/25 02:12:13;;;;;;;1.40;1.15;;;15.20;55.20;;;;;;5019937;28;20128;-54
2023/09/25 02:14:41;;;;;;;1.50;0.88;;;15.20;55.20;;;;;;5020842;28;20057;-54
2023/09/25 02:17:09;;;;;;;1.55;1.10;;;15.20;55.30;;;;;;5020179;28;20520;-56
2023/09/25 02:19:36;;;;;;;1.25;0.85;;;15.20;55.30;;;;;;5020276;28;20413;-54
2023/09/25 02:22:06;;;;;;;2.08;1.17;;;15.20;55.30;;;;;;5019696;28;20052;-52
2023/09/25 02:24:35;;;;;;;2.00;1.00;;;15.20;55.30;;;;;;5018834;28;20053;-55
2023/09/25 02:27:02;;;;;;;1.85;0.82;;;15.20;55.40;;;;;;5020922;28;20060;-54
2023/09/25 02:29:30;;;;;;;2.25;1.02;;;15.20;55.40;;;;;;5021310;28;20057;-55
2023/09/25 02:31:58;;;;;;;1.48;0.90;;;15.20;55.40;;;;;;5019096;28;20057;-54
2023/09/25 02:34:26;;;;;;;2.17;1.10;;;15.20;55.40;;;;;;5020862;28;20051;-55
2023/09/25 02:36:53;;;;;;;3.33;1.10;;;15.20;55.90;;;;;;5019547;28;20053;-55
2023/09/25 02:39:20;;;;;;;2.05;1.20;;;15.10;55.40;;;;;;5019564;28;20049;-55
2023/09/25 02:41:47;;;;;;;3.15;1.05;;;15.10;55.40;;;;;;5020749;28;20497;-56
2023/09/25 02:44:14;;;;;;;1.05;0.77;;;15.10;55.40;;;;;;5020736;28;20060;-55
2023/09/25 02:46:42;;;;;;;1.55;0.88;;;15.10;55.40;;;;;;5019518;28;20061;-53
2023/09/25 02:49:10;;;;;;;1.60;0.98;;;15.10;55.50;;;;;;5020570;28;20064;-56
2023/09/25 02:51:38;;;;;;;2.22;0.90;;;15.10;55.50;;;;;;5018085;28;20053;-56
2023/09/25 02:54:05;;;;;;;2.25;1.10;;;15.10;55.50;;;;;;5023174;28;20061;-55
2023/09/25 02:56:32;;;;;;;2.40;0.93;;;15.10;55.50;;;;;;5024169;28;20060;-56
2023/09/25 02:59:00;;;;;;;3.47;1.20;;;15.10;55.50;;;;;;5023441;28;20046;-55
2023/09/25 03:01:27;;;;;;;1.83;1.00;;;15.10;55.60;;;;;;5023017;28;20057;-56
2023/09/25 03:03:55;;;;;;;1.17;0.88;;;15.10;55.50;;;;;;5023610;28;20080;-55
2023/09/25 03:06:23;;;;;;;2.38;1.00;;;15.10;55.50;;;;;;5022735;28;20536;-55
2023/09/25 03:08:51;;;;;;;3.28;1.02;;;15.10;55.60;;;;;;5024263;28;20053;-55
2023/09/25 03:18:40;;;;;;;2.42;1.20;;;15.10;55.60;;;;;;5030202;28;20041;-55
2023/09/25 03:21:12;;;;;;;1.73;1.13;;;15.10;55.50;;;;;;5023512;28;20532;-57
2023/09/25 03:23:41;;;;;;;2.00;0.80;;;15.10;55.50;;;;;;5023674;28;20064;-57
2023/09/25 03:26:15;;;;;;;1.67;0.88;;;15.10;55.50;;;;;;5020589;28;20060;-56
2023/09/25 03:28:43;;;;;;;1.33;0.60;;;15.10;55.50;;;;;;5023434;28;20057;-56
2023/09/25 03:31:11;;;;;;;1.40;0.80;;;15.10;55.50;;;;;;5022019;28;20045;-57
2023/09/25 03:33:38;;;;;;;2.08;0.90;;;15.10;55.60;;;;;;5022300;28;20061;-55
2023/09/25 03:36:06;;;;;;;2.55;1.00;;;15.10;55.60;;;;;;5023386;28;20057;-56
2023/09/25 03:38:34;;;;;;;1.48;0.90;;;15.10;55.60;;;;;;5022793;28;20061;-55
2023/09/25 03:41:02;;;;;;;1.80;0.88;;;15.10;55.60;;;;;;5021904;28;20068;-56
2023/09/25 03:43:30;;;;;;;1.40;0.90;;;15.10;55.60;;;;;;5022628;28;20060;-55
2023/09/25 03:45:58;;;;;;;1.40;0.80;;;15.10;55.60;;;;;;5020934;28;20053;-54
2023/09/25 03:48:25;;;;;;;6.35;1.08;;;15.10;55.60;;;;;;5022617;28;20072;-54
2023/09/25 03:50:52;;;;;;;1.33;1.00;;;15.10;55.60;;;;;;5019309;28;20061;-54
2023/09/25 03:53:19;;;;;;;1.38;0.88;;;15.10;55.60;;;;;;5017063;28;20057;-56
2023/09/25 03:55:47;;;;;;;2.70;1.08;;;15.10;55.50;;;;;;5021080;28;20053;-55
2023/09/25 03:58:16;;;;;;;1.63;1.00;;;15.10;55.50;;;;;;5019883;28;20065;-53
2023/09/25 04:00:43;;;;;;;2.35;1.25;;;15.10;55.50;;;;;;5021426;28;20049;-54
2023/09/25 04:03:10;;;;;;;1.77;0.80;;;15.00;55.30;;;;;;5020890;28;20437;-55
2023/09/25 04:05:37;;;;;;;2.13;1.00;;;15.00;55.30;;;;;;5020948;28;20045;-55
2023/09/25 04:08:05;;;;;;;1.17;0.80;;;15.00;55.30;;;;;;5021026;28;20505;-56
2023/09/25 04:10:33;;;;;;;0.93;0.82;;;15.00;55.30;;;;;;5020970;28;20057;-55
2023/09/25 04:13:00;;;;;;;1.27;1.00;;;14.90;55.30;;;;;;5021163;28;20053;-54
2023/09/25 04:15:31;;;;;;;1.17;1.00;;;14.90;55.30;;;;;;5021681;28;20508;-56
2023/09/25 04:17:58;;;;;;;0.73;0.70;;;14.90;55.30;;;;;;5021221;28;20052;-56
2023/09/25 04:20:25;;;;;;;3.35;1.10;;;14.90;55.30;;;;;;5021936;28;20053;-55
2023/09/25 04:22:53;;;;;;;4.10;1.17;;;14.80;55.20;;;;;;5020418;28;20060;-53
2023/09/25 04:25:21;;;;;;;3.42;1.05;;;14.80;55.20;;;;;;5020440;28;20433;-53
2023/09/25 04:27:50;;;;;;;1.45;0.93;;;14.80;55.30;;;;;;5020872;28;20497;-53
2023/09/25 04:30:19;;;;;;;1.80;1.10;;;14.80;55.40;;;;;;5018583;28;20053;-55
2023/09/25 04:32:48;;;;;;;1.30;0.80;;;14.80;55.40;;;;;;5021436;28;20085;-52
2023/09/25 04:35:18;;;;;;;3.05;1.30;;;14.70;55.40;;;;;;5021795;28;20540;-53
2023/09/25 04:37:45;;;;;;;1.92;0.90;;;14.70;55.40;;;;;;5021391;28;20050;-52
2023/09/25 04:40:21;;;;;;;1.48;0.90;;;14.70;55.30;;;;;;5022178;28;21394;-56
2023/09/25 04:42:48;;;;;;;2.03;1.20;;;14.60;55.30;;;;;;5021456;28;20521;-53
2023/09/25 04:45:18;;;;;;;1.00;0.90;;;14.60;55.40;;;;;;5020932;28;20057;-55
2023/09/25 04:47:47;;;;;;;3.05;1.00;;;14.60;55.50;;;;;;5021831;28;20050;-54
2023/09/25 04:50:15;;;;;;;3.85;1.15;;;14.60;55.50;;;;;;5021346;28;20057;-56
2023/09/25 04:52:44;;;;;;;2.10;1.20;;;14.60;55.50;;;;;;5020484;28;20060;-53
2023/09/25 04:55:13;;;;;;;4.90;2.15;;;14.50;55.40;;;;;;5020619;28;20524;-56
2023/09/25 04:57:41;;;;;;;1.98;1.30;;;14.50;55.40;;;;;;5019581;28;20413;-54
2023/09/25 05:00:16;;;;;;;1.83;1.25;;;14.50;55.50;;;;;;5020870;28;20053;-54
2023/09/25 05:02:45;;;;;;;2.83;1.20;;;14.40;55.50;;;;;;5019379;28;20056;-53
2023/09/25 05:05:15;;;;;;;2.45;1.00;;;14.40;55.50;;;;;;5021712;28;20053;-54
2023/09/25 05:07:43;;;;;;;2.92;1.20;;;14.40;55.60;;;;;;5020930;28;20076;-53
2023/09/25 05:10:11;;;;;;;1.33;1.00;;;14.40;55.70;;;;;;5017098;28;20405;-54
2023/09/25 05:12:39;;;;;;;2.50;1.35;;;14.30;55.70;;;;;;5020135;28;20408;-54
2023/09/25 05:15:08;;;;;;;2.70;1.08;;;14.30;55.70;;;;;;5020677;28;20508;-54
2023/09/25 05:17:36;;;;;;;2.55;0.90;;;14.30;55.80;;;;;;5020886;28;20061;-54
2023/09/25 05:20:08;;;;;;;1.30;0.70;;;14.30;55.80;;;;;;5020435;28;20072;-55
2023/09/25 05:22:38;;;;;;;5.78;3.03;;;14.30;55.90;;;;;;5013397;28;20058;-52
2023/09/25 05:25:07;;;;;;;18.00;9.55;;;14.30;55.90;;;;;;5019400;28;20060;-53
2023/09/25 05:27:35;;;;;;;10.40;5.55;;;14.30;55.90;;;;;;5020996;28;20057;-54
2023/09/25 05:30:02;;;;;;;5.22;2.90;;;14.20;55.80;;;;;;5018398;28;20064;-53
2023/09/25 05:32:29;;;;;;;2.17;1.80;;;14.20;55.90;;;;;;5018601;28;20056;-54
2023/09/25 05:34:56;;;;;;;1.88;1.27;;;14.20;55.90;;;;;;5018535;28;20060;-55
2023/09/25 05:37:24;;;;;;;4.00;1.30;;;14.20;55.90;;;;;;5018788;28;20061;-55
2023/09/25 05:39:52;;;;;;;1.75;1.20;;;14.20;56.00;;;;;;5020681;28;21477;-55
2023/09/25 05:42:20;;;;;;;1.83;1.13;;;14.20;56.10;;;;;;5020269;28;20046;-54
2023/09/25 05:44:47;;;;;;;1.67;1.05;;;14.20;56.10;;;;;;5019670;28;20057;-53
2023/09/25 05:47:14;;;;;;;1.50;1.10;;;14.20;56.10;;;;;;5017113;28;20402;-53
2023/09/25 05:49:42;;;;;;;3.60;1.50;;;14.20;56.10;;;;;;5020758;28;20058;-55
2023/09/25 05:52:09;;;;;;;2.53;1.45;;;14.20;56.20;;;;;;5038253;28;20053;-57
2023/09/25 05:54:36;;;;;;;1.83;0.98;;;14.20;56.20;;;;;;5041938;28;20057;-56
2023/09/25 05:57:05;;;;;;;1.45;1.10;;;14.10;56.30;;;;;;5040556;28;20053;-56
2023/09/25 05:59:34;;;;;;;4.10;1.08;;;14.20;56.40;;;;;;5040064;28;20060;-55
2023/09/25 06:02:03;;;;;;;1.40;0.88;;;14.20;56.40;;;;;;5038095;28;20053;-54
2023/09/25 06:04:36;;;;;;;1.80;1.00;;;14.10;56.40;;;;;;5038406;28;20053;-56
2023/09/25 06:07:06;;;;;;;2.30;1.27;;;14.20;56.50;;;;;;5038556;28;20045;-54
2023/09/25 06:09:46;;;;;;;1.42;1.10;;;14.20;56.50;;;;;;5038993;28;20057;-56
2023/09/25 06:12:18;;;;;;;1.80;1.35;;;14.20;56.50;;;;;;5039114;28;20053;-56
2023/09/25 06:14:48;;;;;;;2.70;1.15;;;14.20;56.60;;;;;;5037596;28;20061;-57
2023/09/25 06:17:16;;;;;;;1.30;1.00;;;14.10;56.60;;;;;;5038008;28;20057;-55
2023/09/25 06:19:51;;;;;;;2.20;1.15;;;14.20;56.70;;;;;;5037878;28;20127;-56
2023/09/25 06:22:39;;;;;;;2.40;1.40;;;14.20;56.80;;;;;;5038352;28;20444;-57
2023/09/25 06:25:17;;;;;;;1.60;1.20;;;14.20;56.90;;;;;;5038419;28;20057;-54
2023/09/25 06:27:49;;;;;;;2.15;1.38;;;14.20;57.00;;;;;;5039137;28;20533;-56
2023/09/25 06:30:19;;;;;;;2.92;1.25;;;14.30;57.00;;;;;;5041750;28;20402;-51
2023/09/25 06:32:56;;;;;;;1.52;1.10;;;14.30;57.00;;;;;;5041148;28;20056;-53
2023/09/25 06:35:25;;;;;;;2.25;1.30;;;14.30;57.20;;;;;;5042034;28;20052;-55
2023/09/25 06:38:00;;;;;;;2.00;1.30;;;14.30;57.10;;;;;;5041843;28;20516;-56
2023/09/25 06:40:54;;;;;;;1.27;1.10;;;14.30;57.10;;;;;;5040727;28;20539;-53
2023/09/25 06:43:26;;;;;;;2.60;1.27;;;14.30;57.20;;;;;;5041473;28;20497;-53
2023/09/25 06:45:57;;;;;;;2.42;1.27;;;14.40;57.30;;;;;;5040425;28;20056;-55
2023/09/25 06:48:27;;;;;;;1.75;1.27;;;14.40;57.30;;;;;;5042252;28;20519;-53
2023/09/25 06:50:56;;;;;;;1.98;1.20;;;14.40;57.50;;;;;;5041748;28;20517;-55
2023/09/25 06:53:45;;;;;;;2.17;1.17;;;14.50;57.60;;;;;;5041299;28;20083;-53
2023/09/25 06:56:18;;;;;;;1.48;0.98;;;14.50;57.70;;;;;;5027987;28;20057;-53
2023/09/25 06:58:52;;;;;;;4.20;1.20;;;14.50;57.70;;;;;;5040981;28;20056;-55
2023/09/25 07:01:21;;;;;;;1.95;1.10;;;14.60;57.70;;;;;;5040528;28;20649;-57
2023/09/25 07:03:49;;;;;;;4.18;1.30;;;14.60;57.70;;;;;;5041459;28;20080;-57
2023/09/25 07:06:16;;;;;;;2.70;1.42;;;14.60;57.70;;;;;;5042261;28;20068;-55
2023/09/25 07:08:43;;;;;;;0.85;0.73;;;14.70;57.80;;;;;;5043564;28;20053;-54
2023/09/25 07:11:11;;;;;;;2.13;1.20;;;14.70;57.80;;;;;;5042746;28;20057;-54
2023/09/25 07:13:39;;;;;;;6.45;1.10;;;14.70;57.80;;;;;;5042896;28;20507;-54
2023/09/25 07:16:10;;;;;;;1.80;1.08;;;14.80;57.90;;;;;;5041738;28;20064;-55
2023/09/25 07:18:38;;;;;;;3.30;1.70;;;14.80;57.90;;;;;;5043201;28;20055;-55
2023/09/25 07:21:06;;;;;;;8.10;4.05;;;14.90;57.90;;;;;;5043596;28;21082;-54
2023/09/25 07:23:34;;;;;;;4.63;2.75;;;15.00;57.90;;;;;;5041536;28;20056;-51
2023/09/25 07:26:03;;;;;;;2.45;1.70;;;15.00;58.00;;;;;;5042683;28;20053;-56
2023/09/25 07:28:31;;;;;;;1.58;1.27;;;15.00;58.00;;;;;;5043378;28;20048;-55
2023/09/25 07:31:00;;;;;;;4.28;1.33;;;15.10;58.10;;;;;;5042760;28;20044;-57
2023/09/25 07:33:30;;;;;;;2.10;1.30;;;15.20;58.10;;;;;;5042250;28;20382;-55
2023/09/25 07:35:58;;;;;;;2.00;1.08;;;15.20;58.10;;;;;;5043093;28;20485;-54
2023/09/25 07:38:26;;;;;;;1.73;1.10;;;15.30;58.10;;;;;;5039998;28;20049;-56
2023/09/25 07:40:53;;;;;;;3.28;1.23;;;15.30;58.10;;;;;;5039957;28;20049;-54
2023/09/25 07:43:23;;;;;;;4.65;1.50;;;15.40;58.10;;;;;;5041175;28;20045;-54
2023/09/25 07:45:54;;;;;;;2.05;1.20;;;15.40;58.10;;;;;;5040643;28;20079;-56
2023/09/25 07:48:21;;;;;;;2.22;1.13;;;15.50;58.10;;;;;;5041341;28;20064;-55
2023/09/25 07:50:55;;;;;;;5.15;1.10;;;15.50;58.00;;;;;;5040705;28;20505;-56
2023/09/25 07:53:23;;;;;;;2.65;1.48;;;15.60;58.00;;;;;;5039883;28;20049;-55
2023/09/25 07:55:52;;;;;;;2.17;1.20;;;15.60;57.90;;;;;;5039867;28;20053;-56
2023/09/25 07:58:19;;;;;;;2.85;1.40;;;15.70;57.90;;;;;;5041638;28;20057;-55
2023/09/25 08:00:48;;;;;;;3.42;1.33;;;15.80;57.80;;;;;;5040285;28;20405;-55
2023/09/25 08:03:17;;;;;;;4.10;1.65;;;15.80;57.80;;;;;;5039538;28;20045;-56
2023/09/25 08:05:44;;;;;;;4.25;1.27;;;15.90;57.80;;;;;;5041385;28;20057;-55
2023/09/25 08:08:13;;;;;;;26.58;12.57;;;15.90;57.80;;;;;;5040091;28;20049;-53
2023/09/25 08:10:41;;;;;;;20.27;10.00;;;16.00;57.80;;;;;;5039108;28;20049;-54
2023/09/25 08:13:09;;;;;;;6.60;3.55;;;16.00;57.80;;;;;;5033571;28;20049;-55
2023/09/25 08:15:36;;;;;;;3.40;2.15;;;16.10;57.90;;;;;;5038369;28;20489;-54
2023/09/25 08:18:04;;;;;;;3.38;1.20;;;16.10;57.80;;;;;;5038454;28;20398;-58
2023/09/25 08:20:31;;;;;;;2.60;1.33;;;16.20;57.80;;;;;;5038489;28;20049;-53
2023/09/25 08:22:59;;;;;;;2.63;1.38;;;16.30;58.30;;;;;;5038733;28;20099;-56
2023/09/25 08:25:28;;;;;;;1.63;1.15;;;16.30;57.80;;;;;;5036639;28;20413;-57
2023/09/25 08:27:55;;;;;;;6.93;1.35;;;16.30;57.70;;;;;;5040894;28;20057;-56
2023/09/25 08:30:23;;;;;;;3.25;1.38;;;16.40;57.60;;;;;;5036580;28;20340;-55
2023/09/25 08:32:50;;;;;;;2.63;1.40;;;16.40;57.50;;;;;;5038124;28;20057;-56
2023/09/25 08:35:17;;;;;;;4.45;1.25;;;16.50;57.50;;;;;;5039183;28;20049;-56
2023/09/25 08:37:45;;;;;;;3.92;1.10;;;16.60;57.40;;;;;;5039932;28;20049;-52
2023/09/25 08:40:13;;;;;;;2.45;1.30;;;16.60;57.30;;;;;;5038847;28;20048;-54
2023/09/25 08:42:44;;;;;;;2.83;1.55;;;16.70;57.30;;;;;;5038561;28;20408;-49
2023/09/25 08:45:14;;;;;;;2.53;1.50;;;16.70;57.20;;;;;;5034013;28;20449;-53
2023/09/25 08:47:46;;;;;;;3.03;1.50;;;16.80;57.20;;;;;;5012710;28;20053;-52
2023/09/25 08:50:18;;;;;;;2.20;1.10;;;16.90;57.20;;;;;;5044218;28;20500;-55
2023/09/25 08:52:48;;;;;;;2.45;1.25;;;16.90;57.10;;;;;;5015327;28;20052;-54
2023/09/25 08:55:21;;;;;;;2.10;1.30;;;17.00;57.00;;;;;;5016615;28;20045;-52
2023/09/25 09:00:36;;;;;;;4.40;1.20;;;17.10;56.90;;;;;;5001632;28;20065;-56
2023/09/25 09:03:04;;;;;;;2.92;1.27;;;17.20;56.80;;;;;;5017903;28;20061;-56
2023/09/25 09:05:31;;;;;;;4.57;1.52;;;17.20;56.60;;;;;;5019321;28;20045;-55
2023/09/25 09:08:01;;;;;;;3.58;1.40;;;17.30;56.50;;;;;;5020672;28;20049;-54
2023/09/25 09:10:32;;;;;;;1.80;1.15;;;17.30;56.20;;;;;;5017197;28;20056;-53
2023/09/25 09:13:01;;;;;;;4.10;1.33;;;17.40;55.90;;;;;;5019562;28;20065;-53
2023/09/25 09:15:30;;;;;;;2.20;1.35;;;17.40;55.60;;;;;;5018578;28;20052;-55
2023/09/25 09:17:58;;;;;;;3.25;1.42;;;17.50;55.50;;;;;;5017145;28;20049;-54
2023/09/25 09:20:35;;;;;;;3.35;1.40;;;17.50;55.30;;;;;;5017037;28;20057;-54
2023/09/25 09:23:03;;;;;;;2.28;1.25;;;17.60;55.10;;;;;;5017745;28;20053;-56
2023/09/25 09:25:31;;;;;;;3.17;1.40;;;17.60;55.10;;;;;;5017883;28;20049;-54
2023/09/25 09:28:00;;;;;;;2.95;1.17;;;17.70;55.00;;;;;;5019837;28;20382;-53
2023/09/25 09:30:28;;;;;;;5.97;1.55;;;17.70;54.80;;;;;;5017691;28;20424;-51
2023/09/25 09:32:57;;;;;;;2.83;1.52;;;17.80;54.70;;;;;;5018004;28;20060;-53
2023/09/25 09:35:25;;;;;;;2.17;1.30;;;17.80;54.60;;;;;;5019026;28;20072;-54
2023/09/25 09:37:54;;;;;;;2.47;1.48;;;17.90;54.70;;;;;;5019336;28;20068;-52
2023/09/25 09:40:23;;;;;;;4.03;1.50;;;17.90;54.40;;;;;;5019609;28;20057;-51
2023/09/25 09:42:51;;;;;;;4.35;1.80;;;18.00;54.30;;;;;;5018361;28;20068;-57
2023/09/25 09:45:21;;;;;;;3.70;1.33;;;18.00;53.90;;;;;;5016256;28;20049;-53
2023/09/25 09:47:50;;;;;;;2.05;1.27;;;18.10;53.80;;;;;;5017900;28;20512;-55
2023/09/25 09:50:20;;;;;;;5.15;1.50;;;18.10;53.70;;;;;;5017076;28;20592;-54
2023/09/25 09:52:47;;;;;;;3.13;1.48;;;18.20;53.50;;;;;;5018357;28;20064;-54
2023/09/25 09:55:17;;;;;;;2.88;1.15;;;18.20;53.40;;;;;;5019512;28;20056;-56
2023/09/25 09:57:45;;;;;;;3.00;1.40;;;18.30;53.40;;;;;;5018542;28;20053;-54
2023/09/25 10:00:14;;;;;;;3.28;1.80;;;18.40;53.30;;;;;;5018528;28;20049;-55
2023/09/25 10:02:45;;;;;;;3.80;1.85;;;18.40;53.10;;;;;;5016663;28;20064;-52
2023/09/25 10:05:14;;;;;;;3.45;1.65;;;18.50;53.00;;;;;;5019182;28;20050;-57
2023/09/25 10:08:10;;;;;;;4.15;1.85;;;18.50;52.60;;;;;;5023025;28;20076;-55
2023/09/25 10:10:39;;;;;;;3.88;1.70;;;18.50;52.30;;;;;;5014768;28;20060;-57
2023/09/25 10:13:13;;;;;;;2.22;1.58;;;18.60;52.30;;;;;;5023990;28;20412;-58
2023/09/25 10:15:40;;;;;;;;;;;18.60;52.00;;;;;;5022372;28;20049;-55
2023/09/25 10:18:09;;;;;;;3.70;1.50;;;18.70;52.40;;;;;;5021082;28;19921;-57
2023/09/25 10:20:40;;;;;;;2.40;1.45;;;18.70;52.00;;;;;;5021667;28;20057;-54
2023/09/25 10:23:11;;;;;;;6.72;1.77;;;18.70;51.80;;;;;;5021921;28;20394;-55
2023/09/25 10:25:46;;;;;;;3.85;2.05;;;18.70;51.80;;;;;;5019778;28;20504;-55
2023/09/25 10:28:18;;;;;;;3.50;1.40;;;18.80;51.80;;;;;;5022877;28;20493;-57
2023/09/25 10:30:46;;;;;;;6.00;1.75;;;18.80;51.70;;;;;;5021759;28;20053;-53
2023/09/25 10:33:16;;;;;;;6.63;1.90;;;18.80;51.70;;;;;;5020735;28;20509;-56
2023/09/25 10:35:47;;;;;;;4.25;1.63;;;18.90;51.40;;;;;;5022316;28;20409;-56
2023/09/25 10:38:19;;;;;;;3.95;1.50;;;18.80;51.10;;;;;;5021265;28;20061;-57
2023/09/25 10:40:49;;;;;;;3.70;1.40;;;18.90;50.80;;;;;;5021113;28;20060;-57
2023/09/25 10:43:18;;;;;;;2.80;1.48;;;18.90;50.60;;;;;;5023168;28;20049;-56
2023/09/25 10:45:46;;;;;;;3.88;1.50;;;19.00;50.40;;;;;;5020540;28;20057;-50
2023/09/25 10:48:15;;;;;;;2.70;1.40;;;19.00;50.40;;;;;;5020259;28;20489;-47
2023/09/25 10:50:43;;;;;;;5.10;1.70;;;19.00;50.20;;;;;;5027759;28;20050;-46
2023/09/25 10:53:12;;;;;;;4.68;1.50;;;19.00;50.30;;;;;;5020284;28;20386;-52
2023/09/25 10:55:39;;;;;;;3.42;1.77;;;19.10;50.60;;;;;;5022162;28;20053;-50
2023/09/25 10:58:08;;;;;;;4.45;1.60;;;19.10;50.40;;;;;;5021671;28;20045;-46
2023/09/25 11:00:37;;;;;;;4.78;1.60;;;19.20;50.50;;;;;;5021338;28;20489;-51
2023/09/25 11:03:06;;;;;;;5.07;1.52;;;19.20;50.40;;;;;;5022439;28;20258;-48
2023/09/25 11:05:38;;;;;;;5.55;1.30;;;19.30;50.40;;;;;;5022548;28;20057;-50
2023/09/25 11:08:08;;;;;;;4.85;1.67;;;19.30;49.90;;;;;;5020089;28;20421;-53
2023/09/25 11:10:37;;;;;;;4.80;1.50;;;19.40;49.80;;;;;;5021951;28;20068;-47
2023/09/25 11:13:04;;;;;;;2.17;1.40;;;19.40;49.50;;;;;;5020502;28;20045;-50
2023/09/25 11:15:36;;;;;;;4.38;1.50;;;19.40;49.50;;;;;;5021880;28;20049;-48
2023/09/25 11:18:04;;;;;;;3.83;1.20;;;19.50;49.60;;;;;;5020339;28;20060;-50
2023/09/25 11:20:37;;;;;;;3.35;1.40;;;19.60;49.30;;;;;;5021820;28;20057;-49
2023/09/25 11:23:08;;;;;;;2.58;1.33;;;19.60;49.30;;;;;;5020576;28;20061;-46
2023/09/25 11:25:42;;;;;;;3.22;1.30;;;19.60;49.10;;;;;;5022224;28;20054;-49
2023/09/25 11:28:12;;;;;;;4.25;1.50;;;19.70;48.80;;;;;;5021827;28;20064;-46
2023/09/25 11:30:40;;;;;;;1.90;0.98;;;19.80;49.10;;;;;;5020735;28;20064;-50
2023/09/25 11:33:08;;;;;;;3.70;1.17;;;19.80;48.90;;;;;;5020197;28;20057;-51
2023/09/25 11:35:38;;;;;;;3.28;1.52;;;19.80;49.00;;;;;;5020998;28;20060;-50
2023/09/25 11:38:13;;;;;;;2.47;1.30;;;19.80;49.00;;;;;;5019822;28;20053;-49
2023/09/25 11:40:40;;;;;;;2.83;1.50;;;19.90;48.70;;;;;;5021585;28;20080;-50
2023/09/25 11:43:07;;;;;;;4.45;1.48;;;19.90;48.80;;;;;;5021160;28;20058;-48
2023/09/25 11:45:35;;;;;;;2.40;1.20;;;20.00;48.60;;;;;;5020183;28;20049;-49
2023/09/25 11:48:03;;;;;;;2.63;1.10;;;20.00;48.60;;;;;;5019185;28;20429;-49
2023/09/25 11:50:30;;;;;;;2.28;1.27;;;20.00;48.50;;;;;;5021280;28;20053;-52
2023/09/25 11:52:59;;;;;;;2.50;1.13;;;20.10;48.40;;;;;;5020841;28;20049;-49
2023/09/25 11:55:26;;;;;;;2.35;1.38;;;20.10;48.40;;;;;;5022677;28;20045;-49
2023/09/25 11:57:53;;;;;;;2.20;1.02;;;20.20;47.90;;;;;;5019484;28;20065;-49
2023/09/25 12:00:23;;;;;;;3.70;1.45;;;20.20;47.70;;;;;;5018303;28;20413;-51
2023/09/25 12:02:50;;;;;;;2.65;1.40;;;20.20;47.20;;;;;;5020106;28;20054;-52
2023/09/25 12:05:19;;;;;;;2.50;1.13;;;20.30;47.60;;;;;;5021050;28;20048;-51
2023/09/25 12:07:47;;;;;;;2.13;1.15;;;20.30;47.70;;;;;;5020028;28;20073;-51
2023/09/25 12:10:17;;;;;;;2.45;1.30;;;20.40;48.10;;;;;;5021422;28;20057;-49
2023/09/25 12:12:45;;;;;;;2.10;1.13;;;20.40;48.20;;;;;;5019758;28;20474;-50
2023/09/25 12:15:13;;;;;;;2.35;1.40;;;20.40;48.20;;;;;;5019288;28;20058;-47
2023/09/25 12:17:42;;;;;;;2.55;1.50;;;20.50;48.20;;;;;;5018851;28;20057;-52
2023/09/25 12:20:12;;;;;;;2.83;1.33;;;20.50;47.90;;;;;;5019380;28;20053;-45
2023/09/25 12:22:40;;;;;;;2.97;1.40;;;20.60;47.80;;;;;;5019633;28;20061;-47
2023/09/25 12:25:11;;;;;;;2.40;1.10;;;20.70;47.80;;;;;;5017345;28;20053;-48
2023/09/25 12:27:41;;;;;;;2.78;1.50;;;20.70;47.60;;;;;;5021463;28;20053;-47
2023/09/25 12:30:10;;;;;;;2.28;1.30;;;20.70;47.20;;;;;;5020634;28;20386;-52
2023/09/25 12:32:39;;;;;;;2.72;1.27;;;20.80;47.40;;;;;;5021730;28;20060;-50
2023/09/25 12:35:07;;;;;;;2.10;1.10;;;20.80;47.00;;;;;;5021699;28;20528;-46
2023/09/25 12:37:35;;;;;;;3.10;1.30;;;20.90;47.10;;;;;;5022037;28;20064;-46
2023/09/25 12:40:03;;;;;;;2.85;1.38;;;20.90;47.10;;;;;;5021806;28;20056;-48
2023/09/25 12:42:31;;;;;;;3.20;1.38;;;21.00;47.00;;;;;;5022032;28;20061;-47
2023/09/25 12:45:00;;;;;;;2.85;1.40;;;21.00;46.90;;;;;;5020985;28;20084;-44
2023/09/25 12:47:27;;;;;;;2.17;1.33;;;21.00;46.90;;;;;;5019810;28;20076;-48
2023/09/25 12:49:54;;;;;;;1.67;1.00;;;21.10;47.30;;;;;;5019172;28;20058;-47
2023/09/25 12:52:21;;;;;;;2.72;1.00;;;21.10;47.00;;;;;;5019044;28;20049;-47
2023/09/25 12:54:49;;;;;;;3.38;1.10;;;21.20;47.10;;;;;;5021572;28;20060;-48
2023/09/25 12:57:16;;;;;;;2.55;1.20;;;21.20;47.80;;;;;;5018437;28;20064;-48
2023/09/25 12:59:45;;;;;;;1.65;1.13;;;21.20;47.10;;;;;;5019288;28;20076;-51
2023/09/25 13:02:13;;;;;;;2.47;1.30;;;21.30;47.10;;;;;;5019824;28;20049;-50
2023/09/25 13:04:41;;;;;;;2.55;1.02;;;21.30;47.00;;;;;;5019367;28;20053;-46
2023/09/25 13:07:11;;;;;;;4.22;1.50;;;21.40;46.70;;;;;;5017531;28;20046;-46